createdAt,value
2019-02-12T00:00:14.939Z,2.25
2019-02-12T00:01:14.950Z,2.29
2019-02-12T00:02:14.917Z,2.37
2019-02-12T00:03:14.907Z,2.35
2019-02-12T00:04:14.900Z,2.33
2019-02-12T00:05:14.883Z,2.42
2019-02-12T00:06:14.908Z,2.43
2019-02-12T00:07:14.862Z,2.43
2019-02-12T00:08:14.856Z,2.47
2019-02-12T00:09:14.843Z,2.43
2019-02-12T00:10:14.833Z,2.48
2019-02-12T00:11:14.843Z,2.45
2019-02-12T00:12:14.806Z,2.43
2019-02-12T00:13:14.798Z,2.51
2019-02-12T00:14:14.783Z,2.42
2019-02-12T00:15:14.772Z,2.48
2019-02-12T00:16:14.823Z,2.47
2019-02-12T00:17:14.770Z,2.42
2019-02-12T00:18:14.760Z,2.50
2019-02-12T00:19:14.729Z,2.39
2019-02-12T00:20:14.717Z,2.43
2019-02-12T00:21:14.731Z,2.48
2019-02-12T00:22:14.715Z,2.40
2019-02-12T00:23:14.685Z,2.42
2019-02-12T00:24:14.673Z,2.37
2019-02-12T00:25:14.674Z,2.43
2019-02-12T00:26:14.703Z,2.43
2019-02-12T00:27:14.648Z,2.40
2019-02-12T00:28:14.659Z,2.36
2019-02-12T00:29:14.624Z,2.50
2019-02-12T00:30:14.610Z,2.53
2019-02-12T00:31:14.620Z,2.47
2019-02-12T00:32:14.590Z,2.48
2019-02-12T00:33:16.156Z,2.53
2019-02-12T00:34:14.566Z,2.55
2019-02-12T00:35:14.555Z,2.53
2019-02-12T00:36:14.584Z,2.53
2019-02-12T00:37:14.532Z,2.58
2019-02-12T00:38:14.528Z,2.57
2019-02-12T00:39:14.509Z,2.66
2019-02-12T00:40:14.499Z,2.69
2019-02-12T00:41:14.492Z,2.73
2019-02-12T00:42:14.507Z,2.73
2019-02-12T00:43:14.474Z,2.84
2019-02-12T00:44:14.465Z,2.86
2019-02-12T00:45:14.469Z,2.90
2019-02-12T00:46:14.447Z,2.84
2019-02-12T00:47:14.453Z,2.89
2019-02-12T00:48:14.416Z,2.86
2019-02-12T00:49:14.400Z,2.96
2019-02-12T00:50:14.390Z,3.00
2019-02-12T00:51:17.838Z,3.04
2019-02-12T00:52:14.407Z,2.97
2019-02-12T00:53:16.160Z,3.12
2019-02-12T00:54:14.348Z,3.04
2019-02-12T00:55:14.352Z,3.05
2019-02-12T00:56:14.322Z,3.08
2019-02-12T00:57:14.334Z,3.14
2019-02-12T00:58:14.300Z,3.18
2019-02-12T00:59:14.305Z,3.18
2019-02-12T01:00:14.290Z,3.14
2019-02-12T01:01:14.279Z,3.20
2019-02-12T01:02:14.291Z,3.22
2019-02-12T01:03:14.245Z,3.20
2019-02-12T01:04:14.236Z,3.15
2019-02-12T01:05:14.228Z,3.22
2019-02-12T01:06:14.216Z,3.26
2019-02-12T01:07:14.227Z,3.26
2019-02-12T01:08:14.193Z,3.18
2019-02-12T01:09:14.183Z,3.30
2019-02-12T01:10:14.181Z,3.27
2019-02-12T01:11:14.158Z,3.29
2019-02-12T01:12:14.174Z,3.23
2019-02-12T01:13:14.137Z,3.18
2019-02-12T01:14:14.151Z,3.26
2019-02-12T01:15:14.118Z,3.17
2019-02-12T01:16:14.128Z,3.15
2019-02-12T01:17:14.116Z,3.11
2019-02-12T01:18:14.087Z,3.11
2019-02-12T01:19:14.072Z,3.12
2019-02-12T01:20:14.066Z,3.11
2019-02-12T01:21:14.052Z,3.14
2019-02-12T01:22:14.067Z,3.14
2019-02-12T01:23:14.027Z,3.20
2019-02-12T01:24:14.021Z,3.22
2019-02-12T01:25:14.057Z,3.17
2019-02-12T01:26:14.000Z,3.26
2019-02-12T01:27:14.006Z,3.25
2019-02-12T01:28:13.974Z,3.22
2019-02-12T01:29:13.960Z,3.23
2019-02-12T01:30:13.949Z,3.25
2019-02-12T01:31:13.958Z,3.14
2019-02-12T01:32:13.958Z,3.22
2019-02-12T01:33:13.922Z,3.20
2019-02-12T01:34:13.907Z,3.18
2019-02-12T01:35:13.898Z,3.18
2019-02-12T01:36:13.884Z,3.23
2019-02-12T01:37:13.896Z,3.15
2019-02-12T01:38:13.862Z,3.18
2019-02-12T01:39:13.973Z,3.20
2019-02-12T01:40:13.838Z,3.22
2019-02-12T01:41:13.839Z,3.23
2019-02-12T01:42:13.842Z,3.27
2019-02-12T01:43:13.808Z,3.29
2019-02-12T01:44:13.809Z,3.23
2019-02-12T01:45:13.789Z,3.32
2019-02-12T01:46:13.777Z,3.41
2019-02-12T01:47:13.784Z,3.23
2019-02-12T01:48:13.751Z,3.27
2019-02-12T01:49:13.739Z,3.33
2019-02-12T01:50:13.735Z,3.18
2019-02-12T01:51:13.719Z,3.23
2019-02-12T01:52:13.732Z,3.23
2019-02-12T01:53:13.697Z,3.25
2019-02-12T01:54:13.713Z,3.18
2019-02-12T01:55:13.673Z,3.25
2019-02-12T01:56:13.663Z,3.22
2019-02-12T01:57:13.701Z,3.23
2019-02-12T01:58:13.655Z,3.17
2019-02-12T01:59:15.140Z,3.12
2019-02-12T02:00:13.630Z,3.17
2019-02-12T02:01:13.608Z,3.20
2019-02-12T02:02:13.621Z,3.20
2019-02-12T02:03:13.607Z,3.20
2019-02-12T02:04:13.575Z,3.22
2019-02-12T02:05:13.568Z,3.22
2019-02-12T02:06:13.558Z,3.23
2019-02-12T02:07:13.575Z,3.33
2019-02-12T02:08:13.531Z,3.36
2019-02-12T02:09:13.527Z,3.32
2019-02-12T02:10:13.508Z,3.30
2019-02-12T02:11:13.506Z,3.35
2019-02-12T02:12:13.511Z,3.41
2019-02-12T02:13:13.475Z,3.37
2019-02-12T02:14:13.480Z,3.35
2019-02-12T02:15:13.480Z,3.29
2019-02-12T02:16:13.456Z,3.26
2019-02-12T02:17:13.460Z,3.45
2019-02-12T02:18:13.420Z,3.48
2019-02-12T02:19:13.411Z,3.36
2019-02-12T02:20:13.407Z,3.48
2019-02-12T02:21:13.387Z,3.44
2019-02-12T02:22:13.404Z,3.45
2019-02-12T02:23:13.371Z,3.27
2019-02-12T02:24:13.356Z,3.41
2019-02-12T02:25:13.344Z,3.29
2019-02-12T02:26:13.344Z,3.33
2019-02-12T02:27:13.347Z,3.35
2019-02-12T02:28:13.309Z,3.33
2019-02-12T02:29:13.307Z,3.29
2019-02-12T02:30:13.291Z,3.29
2019-02-12T02:31:15.140Z,3.35
2019-02-12T02:32:13.382Z,3.32
2019-02-12T02:33:13.276Z,3.36
2019-02-12T02:34:13.241Z,3.37
2019-02-12T02:35:13.238Z,3.37
2019-02-12T02:36:13.222Z,3.42
2019-02-12T02:37:13.223Z,3.51
2019-02-12T02:38:13.221Z,3.44
2019-02-12T02:39:15.133Z,3.46
2019-02-12T02:40:13.193Z,3.45
2019-02-12T02:41:13.301Z,3.44
2019-02-12T02:42:13.160Z,3.49
2019-02-12T02:43:15.148Z,3.49
2019-02-12T02:44:13.132Z,3.54
2019-02-12T02:45:13.128Z,3.54
2019-02-12T02:46:14.629Z,3.51
2019-02-12T02:47:13.100Z,3.49
2019-02-12T02:48:13.236Z,3.49
2019-02-12T02:49:13.117Z,3.51
2019-02-12T02:50:13.069Z,3.55
2019-02-12T02:51:13.061Z,3.60
2019-02-12T02:52:13.088Z,3.52
2019-02-12T02:53:13.067Z,3.52
2019-02-12T02:54:13.025Z,3.54
2019-02-12T02:55:13.014Z,3.48
2019-02-12T02:56:13.009Z,3.59
2019-02-12T02:57:13.002Z,3.52
2019-02-12T02:58:13.033Z,3.48
2019-02-12T02:59:12.985Z,3.51
2019-02-12T03:00:12.985Z,3.46
2019-02-12T03:01:12.946Z,3.48
2019-02-12T03:02:12.938Z,3.46
2019-02-12T03:03:12.949Z,3.48
2019-02-12T03:04:13.001Z,3.52
2019-02-12T03:05:12.906Z,3.48
2019-02-12T03:06:12.891Z,3.45
2019-02-12T03:07:12.880Z,3.46
2019-02-12T03:08:12.943Z,3.48
2019-02-12T03:09:12.862Z,3.42
2019-02-12T03:10:12.853Z,3.48
2019-02-12T03:11:14.641Z,3.48
2019-02-12T03:12:12.827Z,3.37
2019-02-12T03:13:12.851Z,3.44
2019-02-12T03:14:12.822Z,3.41
2019-02-12T03:15:12.808Z,3.54
2019-02-12T03:16:12.787Z,3.48
2019-02-12T03:17:12.769Z,3.46
2019-02-12T03:18:12.786Z,3.54
2019-02-12T03:19:12.747Z,3.48
2019-02-12T03:20:12.735Z,3.45
2019-02-12T03:21:12.724Z,3.45
2019-02-12T03:22:12.852Z,3.44
2019-02-12T03:23:12.753Z,3.32
2019-02-12T03:24:12.691Z,3.32
2019-02-12T03:25:12.693Z,3.29
2019-02-12T03:26:12.676Z,3.29
2019-02-12T03:27:12.659Z,3.30
2019-02-12T03:28:12.680Z,3.36
2019-02-12T03:29:12.638Z,3.30
2019-02-12T03:30:12.940Z,3.36
2019-02-12T03:31:12.687Z,3.30
2019-02-12T03:32:12.626Z,3.45
2019-02-12T03:33:12.616Z,3.33
2019-02-12T03:34:12.585Z,3.25
2019-02-12T03:35:12.574Z,3.33
2019-02-12T03:36:12.565Z,3.32
2019-02-12T03:37:14.123Z,3.29
2019-02-12T03:38:12.595Z,3.33
2019-02-12T03:39:12.538Z,3.33
2019-02-12T03:40:12.529Z,3.27
2019-02-12T03:41:12.539Z,3.32
2019-02-12T03:42:12.513Z,3.29
2019-02-12T03:43:12.508Z,3.29
2019-02-12T03:44:14.121Z,3.35
2019-02-12T03:45:14.121Z,3.20
2019-02-12T03:46:12.449Z,3.17
2019-02-12T03:47:12.439Z,3.18
2019-02-12T03:48:12.460Z,3.25
2019-02-12T03:49:14.120Z,3.22
2019-02-12T03:50:12.453Z,3.18
2019-02-12T03:51:12.393Z,3.22
2019-02-12T03:52:13.296Z,3.17
2019-02-12T03:53:14.156Z,3.22
2019-02-12T03:54:12.401Z,3.23
2019-02-12T03:55:12.354Z,3.20
2019-02-12T03:56:12.348Z,3.26
2019-02-12T03:57:12.337Z,3.20
2019-02-12T03:58:12.319Z,3.11
2019-02-12T03:59:12.329Z,3.14
2019-02-12T04:00:12.297Z,3.18
2019-02-12T04:01:12.290Z,3.08
2019-02-12T04:02:12.276Z,3.11
2019-02-12T04:03:12.260Z,3.09
2019-02-12T04:04:14.138Z,3.15
2019-02-12T04:05:12.272Z,3.11
2019-02-12T04:06:12.239Z,3.02
2019-02-12T04:07:12.224Z,3.07
2019-02-12T04:08:12.208Z,3.04
2019-02-12T04:09:12.219Z,3.11
2019-02-12T04:10:12.187Z,3.11
2019-02-12T04:11:12.175Z,3.11
2019-02-12T04:12:12.174Z,3.04
2019-02-12T04:13:12.166Z,3.05
2019-02-12T04:14:14.141Z,3.12
2019-02-12T04:15:12.137Z,3.12
2019-02-12T04:16:12.119Z,3.09
2019-02-12T04:17:12.109Z,3.04
2019-02-12T04:18:12.108Z,3.07
2019-02-12T04:19:12.115Z,2.97
2019-02-12T04:20:12.079Z,3.05
2019-02-12T04:21:12.066Z,2.89
2019-02-12T04:22:21.904Z,2.99
2019-02-12T04:23:12.056Z,2.91
2019-02-12T04:24:12.107Z,2.86
2019-02-12T04:25:12.025Z,2.91
2019-02-12T04:26:12.028Z,2.89
2019-02-12T04:27:12.013Z,2.82
2019-02-12T04:28:11.990Z,2.84
2019-02-12T04:29:12.036Z,2.84
2019-02-12T04:30:12.070Z,2.82
2019-02-12T04:31:11.984Z,2.81
2019-02-12T04:32:11.942Z,2.78
2019-02-12T04:33:11.932Z,2.73
2019-02-12T04:34:11.952Z,2.78
2019-02-12T04:35:11.909Z,2.78
2019-02-12T04:36:11.945Z,2.84
2019-02-12T04:37:11.888Z,2.76
2019-02-12T04:38:11.901Z,2.75
2019-02-12T04:39:11.913Z,2.78
2019-02-12T04:40:11.857Z,2.69
2019-02-12T04:41:11.861Z,2.73
2019-02-12T04:42:11.898Z,2.78
2019-02-12T04:43:11.826Z,2.71
2019-02-12T04:44:11.833Z,2.75
2019-02-12T04:45:11.802Z,2.73
2019-02-12T04:46:13.635Z,2.66
2019-02-12T04:47:11.802Z,2.65
2019-02-12T04:48:11.798Z,2.53
2019-02-12T04:49:11.796Z,2.48
2019-02-12T04:50:11.749Z,2.48
2019-02-12T04:51:11.762Z,2.43
2019-02-12T04:52:11.726Z,2.37
2019-02-12T04:53:11.713Z,2.36
2019-02-12T04:54:11.706Z,2.47
2019-02-12T04:55:11.729Z,2.39
2019-02-12T04:56:11.686Z,2.43
2019-02-12T04:57:11.675Z,2.55
2019-02-12T04:58:11.674Z,2.51
2019-02-12T04:59:11.675Z,2.65
2019-02-12T05:00:11.663Z,2.63
2019-02-12T05:01:11.626Z,2.69
2019-02-12T05:02:11.617Z,2.75
2019-02-12T05:03:11.604Z,2.76
2019-02-12T05:04:11.629Z,2.71
2019-02-12T05:05:11.675Z,2.75
2019-02-12T05:06:11.576Z,2.72
2019-02-12T05:07:11.563Z,2.79
2019-02-12T05:08:11.556Z,2.76
2019-02-12T05:09:11.542Z,2.84
2019-02-12T05:10:13.140Z,2.82
2019-02-12T05:11:11.523Z,2.87
2019-02-12T05:12:11.522Z,2.93
2019-02-12T05:13:13.131Z,2.90
2019-02-12T05:14:11.498Z,2.97
2019-02-12T05:15:11.497Z,2.94
2019-02-12T05:16:11.489Z,3.07
2019-02-12T05:17:11.456Z,3.09
2019-02-12T05:18:11.441Z,3.02
2019-02-12T05:19:11.431Z,3.12
2019-02-12T05:20:11.450Z,3.09
2019-02-12T05:21:11.445Z,3.14
2019-02-12T05:22:11.397Z,3.17
2019-02-12T05:23:11.389Z,3.20
2019-02-12T05:24:11.378Z,3.29
2019-02-12T05:25:12.440Z,3.29
2019-02-12T05:26:11.380Z,3.29
2019-02-12T05:27:11.347Z,3.35
2019-02-12T05:28:11.335Z,3.18
2019-02-12T05:29:11.333Z,3.26
2019-02-12T05:30:13.152Z,3.27
2019-02-12T05:31:11.300Z,3.17
2019-02-12T05:32:11.286Z,3.15
2019-02-12T05:33:11.278Z,3.29
2019-02-12T05:34:11.301Z,3.25
2019-02-12T05:35:11.277Z,3.32
2019-02-12T05:36:11.283Z,3.30
2019-02-12T05:37:11.235Z,3.35
2019-02-12T05:38:11.261Z,3.27
2019-02-12T05:39:11.217Z,3.32
2019-02-12T05:40:11.294Z,3.44
2019-02-12T05:41:11.280Z,3.36
2019-02-12T05:42:11.189Z,3.30
2019-02-12T05:43:11.168Z,3.32
2019-02-12T05:44:11.165Z,3.32
2019-02-12T05:45:11.198Z,3.32
2019-02-12T05:46:11.173Z,3.48
2019-02-12T05:47:11.138Z,3.29
2019-02-12T05:48:11.111Z,3.32
2019-02-12T05:49:11.100Z,3.36
2019-02-12T05:50:11.112Z,3.35
2019-02-12T05:51:11.082Z,3.27
2019-02-12T05:52:11.066Z,3.32
2019-02-12T05:53:11.056Z,3.30
2019-02-12T05:54:11.051Z,3.45
2019-02-12T05:55:11.244Z,3.45
2019-02-12T05:56:11.022Z,3.35
2019-02-12T05:57:11.029Z,3.32
2019-02-12T05:58:11.001Z,3.32
2019-02-12T05:59:10.989Z,3.37
2019-02-12T06:00:11.035Z,3.41
2019-02-12T06:01:10.969Z,3.32
2019-02-12T06:02:10.963Z,3.33
2019-02-12T06:03:10.977Z,3.30
2019-02-12T06:04:10.958Z,3.33
2019-02-12T06:05:10.924Z,3.36
2019-02-12T06:06:10.935Z,3.30
2019-02-12T06:07:10.908Z,3.30
2019-02-12T06:08:10.891Z,3.18
2019-02-12T06:09:10.887Z,3.25
2019-02-12T06:10:10.871Z,3.18
2019-02-12T06:11:10.881Z,3.25
2019-02-12T06:12:10.885Z,3.23
2019-02-12T06:13:10.837Z,3.25
2019-02-12T06:14:10.826Z,3.17
2019-02-12T06:15:10.815Z,3.23
2019-02-12T06:16:10.827Z,3.22
2019-02-12T06:17:10.792Z,3.26
2019-02-12T06:18:10.781Z,3.20
2019-02-12T06:19:11.670Z,3.22
2019-02-12T06:20:10.760Z,3.23
2019-02-12T06:21:11.443Z,3.22
2019-02-12T06:22:10.740Z,3.26
2019-02-12T06:23:10.754Z,3.29
2019-02-12T06:24:10.724Z,3.35
2019-02-12T06:25:10.757Z,3.26
2019-02-12T06:26:10.735Z,3.27
2019-02-12T06:27:10.687Z,3.23
2019-02-12T06:28:10.675Z,3.23
2019-02-12T06:29:10.667Z,3.17
2019-02-12T06:30:10.649Z,3.25
2019-02-12T06:31:10.661Z,3.22
2019-02-12T06:32:10.658Z,3.22
2019-02-12T06:33:10.617Z,3.26
2019-02-12T06:34:10.606Z,3.20
2019-02-12T06:35:10.595Z,3.23
2019-02-12T06:36:10.610Z,3.12
2019-02-12T06:37:10.579Z,3.18
2019-02-12T06:38:10.563Z,3.11
2019-02-12T06:39:10.612Z,3.18
2019-02-12T06:40:10.577Z,3.15
2019-02-12T06:41:10.552Z,3.15
2019-02-12T06:42:10.539Z,3.20
2019-02-12T06:43:10.508Z,3.18
2019-02-12T06:44:10.503Z,3.05
2019-02-12T06:45:10.501Z,3.11
2019-02-12T06:46:10.497Z,3.09
2019-02-12T06:47:10.466Z,3.11
2019-02-12T06:48:10.463Z,3.07
2019-02-12T06:49:10.444Z,2.99
2019-02-12T06:50:10.431Z,3.07
2019-02-12T06:51:10.455Z,2.99
2019-02-12T06:52:10.414Z,3.08
2019-02-12T06:53:12.587Z,3.00
2019-02-12T06:54:10.387Z,3.00
2019-02-12T06:55:10.387Z,3.00
2019-02-12T06:56:10.389Z,3.04
2019-02-12T06:57:10.354Z,2.90
2019-02-12T06:58:10.345Z,2.87
2019-02-12T06:59:10.336Z,2.87
2019-02-12T07:00:10.358Z,2.90
2019-02-12T07:01:10.338Z,2.90
2019-02-12T07:02:10.299Z,2.91
2019-02-12T07:03:10.289Z,2.90
2019-02-12T07:04:10.465Z,2.91
2019-02-12T07:05:10.271Z,2.91
2019-02-12T07:06:10.298Z,2.91
2019-02-12T07:07:10.269Z,2.89
2019-02-12T07:08:10.234Z,2.89
2019-02-12T07:09:10.228Z,2.78
2019-02-12T07:10:10.214Z,2.90
2019-02-12T07:11:10.231Z,2.94
2019-02-12T07:12:10.248Z,2.78
2019-02-12T07:13:10.186Z,2.87
2019-02-12T07:14:10.179Z,2.84
2019-02-12T07:15:10.162Z,2.86
2019-02-12T07:16:10.170Z,2.81
2019-02-12T07:17:10.255Z,2.78
2019-02-12T07:18:10.128Z,2.78
2019-02-12T07:19:10.114Z,2.89
2019-02-12T07:20:10.115Z,2.82
2019-02-12T07:21:10.148Z,2.86
2019-02-12T07:22:10.099Z,2.87
2019-02-12T07:23:10.127Z,2.79
2019-02-12T07:24:10.068Z,2.93
2019-02-12T07:25:10.051Z,2.84
2019-02-12T07:26:10.061Z,2.87
2019-02-12T07:27:10.033Z,2.89
2019-02-12T07:28:10.041Z,2.87
2019-02-12T07:29:10.037Z,2.93
2019-02-12T07:30:10.028Z,2.94
2019-02-12T07:31:10.013Z,2.86
2019-02-12T07:32:09.983Z,2.96
2019-02-12T07:33:13.331Z,2.93
2019-02-12T07:34:09.950Z,2.87
2019-02-12T07:35:09.943Z,2.87
2019-02-12T07:36:10.042Z,2.87
2019-02-12T07:37:09.932Z,2.89
2019-02-12T07:38:09.907Z,2.99
2019-02-12T07:39:09.898Z,3.00
2019-02-12T07:40:09.893Z,3.07
2019-02-12T07:41:19.564Z,2.97
2019-02-12T07:42:09.902Z,3.07
2019-02-12T07:43:09.863Z,3.11
2019-02-12T07:44:09.840Z,3.22
2019-02-12T07:45:09.834Z,3.15
2019-02-12T07:46:09.824Z,3.23
2019-02-12T07:47:09.845Z,3.18
2019-02-12T07:48:09.797Z,3.18
2019-02-12T07:49:09.790Z,3.20
2019-02-12T07:50:09.777Z,3.22
2019-02-12T07:51:09.785Z,3.22
2019-02-12T07:52:09.781Z,3.20
2019-02-12T07:53:09.743Z,3.20
2019-02-12T07:54:09.735Z,3.23
2019-02-12T07:55:09.722Z,3.30
2019-02-12T07:56:09.720Z,3.18
2019-02-12T07:57:09.720Z,3.30
2019-02-12T07:58:09.687Z,3.17
2019-02-12T07:59:09.688Z,3.20
2019-02-12T08:00:09.674Z,3.20
2019-02-12T08:01:09.693Z,3.26
2019-02-12T08:02:09.669Z,3.25
2019-02-12T08:03:09.647Z,3.15
2019-02-12T08:04:10.662Z,3.32
2019-02-12T08:05:09.613Z,3.27
2019-02-12T08:06:09.600Z,3.32
2019-02-12T08:07:09.611Z,3.41
2019-02-12T08:08:09.619Z,3.37
2019-02-12T08:09:09.569Z,3.27
2019-02-12T08:10:09.564Z,3.33
2019-02-12T08:11:09.545Z,3.37
2019-02-12T08:12:09.573Z,3.56
2019-02-12T08:13:09.523Z,3.49
2019-02-12T08:14:09.511Z,3.64
2019-02-12T08:15:09.500Z,3.52
2019-02-12T08:16:09.502Z,3.49
2019-02-12T08:17:09.515Z,3.60
2019-02-12T08:18:09.479Z,3.55
2019-02-12T08:19:09.457Z,3.64
2019-02-12T08:20:09.448Z,3.60
2019-02-12T08:21:09.434Z,3.55
2019-02-12T08:22:09.448Z,3.63
2019-02-12T08:23:09.413Z,3.48
2019-02-12T08:24:09.403Z,3.55
2019-02-12T08:25:09.394Z,3.62
2019-02-12T08:26:09.451Z,3.55
2019-02-12T08:27:09.426Z,3.49
2019-02-12T08:28:09.358Z,3.52
2019-02-12T08:29:09.346Z,3.66
2019-02-12T08:30:09.334Z,3.64
2019-02-12T08:31:09.329Z,3.52
2019-02-12T08:32:09.323Z,3.56
2019-02-12T08:33:09.405Z,3.56
2019-02-12T08:34:09.312Z,3.66
2019-02-12T08:35:09.341Z,3.52
2019-02-12T08:36:11.083Z,3.60
2019-02-12T08:37:09.257Z,3.64
2019-02-12T08:38:09.274Z,3.76
2019-02-12T08:39:09.243Z,3.74
2019-02-12T08:40:09.231Z,3.70
2019-02-12T08:41:09.223Z,3.74
2019-02-12T08:42:09.201Z,3.82
2019-02-12T08:43:09.225Z,3.84
2019-02-12T08:44:09.196Z,3.90
2019-02-12T08:45:09.172Z,3.87
2019-02-12T08:46:09.156Z,3.90
2019-02-12T08:47:09.161Z,3.94
2019-02-12T08:48:09.192Z,4.05
2019-02-12T08:49:09.136Z,3.99
2019-02-12T08:50:09.114Z,3.94
2019-02-12T08:51:09.104Z,3.98
2019-02-12T08:52:09.136Z,4.00
2019-02-12T08:53:09.103Z,3.91
2019-02-12T08:54:09.077Z,4.00
2019-02-12T08:55:09.075Z,4.02
2019-02-12T08:56:09.075Z,4.02
2019-02-12T08:57:09.034Z,4.08
2019-02-12T08:58:09.099Z,4.06
2019-02-12T08:59:09.016Z,4.17
2019-02-12T09:00:09.001Z,4.18
2019-02-12T09:01:09.018Z,4.12
2019-02-12T09:02:08.997Z,4.20
2019-02-12T09:03:09.026Z,4.12
2019-02-12T09:04:08.955Z,4.16
2019-02-12T09:05:08.953Z,4.18
2019-02-12T09:06:08.934Z,4.24
2019-02-12T09:07:08.935Z,4.21
2019-02-12T09:08:08.934Z,4.24
2019-02-12T09:09:08.915Z,4.26
2019-02-12T09:10:08.917Z,4.24
2019-02-12T09:11:08.912Z,4.26
2019-02-12T09:12:08.870Z,4.23
2019-02-12T09:13:08.961Z,4.27
2019-02-12T09:14:08.885Z,4.20
2019-02-12T09:15:08.833Z,4.17
2019-02-12T09:16:08.825Z,4.16
2019-02-12T09:17:08.813Z,4.21
2019-02-12T09:18:08.846Z,4.13
2019-02-12T09:19:08.792Z,4.16
2019-02-12T09:20:08.776Z,4.18
2019-02-12T09:21:08.772Z,4.20
2019-02-12T09:22:08.766Z,4.27
2019-02-12T09:23:08.783Z,4.27
2019-02-12T09:24:08.735Z,4.26
2019-02-12T09:25:08.726Z,4.26
2019-02-12T09:26:08.710Z,4.26
2019-02-12T09:27:08.701Z,4.26
2019-02-12T09:28:08.728Z,4.31
2019-02-12T09:29:08.692Z,4.24
2019-02-12T09:30:08.673Z,4.27
2019-02-12T09:31:08.658Z,4.31
2019-02-12T09:32:08.646Z,4.36
2019-02-12T09:33:08.660Z,4.38
2019-02-12T09:34:08.626Z,4.31
2019-02-12T09:35:08.611Z,4.35
2019-02-12T09:36:08.605Z,4.27
2019-02-12T09:37:08.716Z,4.30
2019-02-12T09:38:08.599Z,4.30
2019-02-12T09:39:08.571Z,4.24
2019-02-12T09:40:18.592Z,4.34
2019-02-12T09:41:09.547Z,4.26
2019-02-12T09:42:08.659Z,4.34
2019-02-12T09:43:08.547Z,4.28
2019-02-12T09:44:08.513Z,4.38
2019-02-12T09:45:08.503Z,4.45
2019-02-12T09:46:08.493Z,4.43
2019-02-12T09:47:08.482Z,4.48
2019-02-12T09:48:08.489Z,4.49
2019-02-12T09:49:08.478Z,4.54
2019-02-12T09:50:08.475Z,4.54
2019-02-12T09:51:08.456Z,4.57
2019-02-12T09:52:08.438Z,4.57
2019-02-12T09:53:08.440Z,4.61
2019-02-12T09:54:09.009Z,4.64
2019-02-12T09:55:08.392Z,4.74
2019-02-12T09:56:08.386Z,4.72
2019-02-12T09:57:08.372Z,4.61
2019-02-12T09:58:08.406Z,4.85
2019-02-12T09:59:08.373Z,4.66
2019-02-12T10:00:08.353Z,4.74
2019-02-12T10:01:10.018Z,4.75
2019-02-12T10:02:08.322Z,4.74
2019-02-12T10:03:08.323Z,4.82
2019-02-12T10:04:08.293Z,4.86
2019-02-12T10:05:08.303Z,4.91
2019-02-12T10:06:08.293Z,4.89
2019-02-12T10:07:08.301Z,4.85
2019-02-12T10:08:08.272Z,4.91
2019-02-12T10:09:08.506Z,4.86
2019-02-12T10:10:08.241Z,4.89
2019-02-12T10:11:08.222Z,4.82
2019-02-12T10:12:08.203Z,4.79
2019-02-12T10:13:08.218Z,4.85
2019-02-12T10:14:08.238Z,4.85
2019-02-12T10:15:08.170Z,4.83
2019-02-12T10:16:08.159Z,4.93
2019-02-12T10:17:08.152Z,4.96
2019-02-12T10:18:08.168Z,4.96
2019-02-12T10:19:08.304Z,5.00
2019-02-12T10:20:08.339Z,5.06
2019-02-12T10:21:08.100Z,5.00
2019-02-12T10:22:08.093Z,5.00
2019-02-12T10:23:08.080Z,5.01
2019-02-12T10:24:08.188Z,5.04
2019-02-12T10:25:08.059Z,5.04
2019-02-12T10:26:08.057Z,5.01
2019-02-12T10:27:08.033Z,5.03
2019-02-12T10:28:08.713Z,5.09
2019-02-12T10:29:08.037Z,5.06
2019-02-12T10:30:07.999Z,5.14
2019-02-12T10:31:07.994Z,5.11
2019-02-12T10:32:08.996Z,5.06
2019-02-12T10:33:07.965Z,5.15
2019-02-12T10:34:07.983Z,5.04
2019-02-12T10:35:07.945Z,5.14
2019-02-12T10:36:07.955Z,5.12
2019-02-12T10:37:07.970Z,5.14
2019-02-12T10:38:07.911Z,5.09
2019-02-12T10:39:07.923Z,5.21
2019-02-12T10:40:07.890Z,5.15
2019-02-12T10:41:07.882Z,5.14
2019-02-12T10:42:07.863Z,5.27
2019-02-12T10:43:07.872Z,5.19
2019-02-12T10:44:09.589Z,5.29
2019-02-12T10:45:07.831Z,5.27
2019-02-12T10:46:07.821Z,5.33
2019-02-12T10:47:08.430Z,5.34
2019-02-12T10:48:07.803Z,5.37
2019-02-12T10:49:07.826Z,5.32
2019-02-12T10:50:07.781Z,5.43
2019-02-12T10:51:07.794Z,5.40
2019-02-12T10:52:07.836Z,5.48
2019-02-12T10:53:08.961Z,5.43
2019-02-12T10:54:07.751Z,5.62
2019-02-12T10:55:07.726Z,5.62
2019-02-12T10:56:09.565Z,5.82
2019-02-12T10:57:07.747Z,5.91
2019-02-12T10:58:08.633Z,6.00
2019-02-12T10:59:09.608Z,6.11
2019-02-12T11:00:07.665Z,6.18
2019-02-12T11:01:07.651Z,6.32
2019-02-12T11:02:07.641Z,6.38
2019-02-12T11:03:07.631Z,6.45
2019-02-12T11:04:07.659Z,6.47
2019-02-12T11:05:07.616Z,6.57
2019-02-12T11:06:07.614Z,6.55
2019-02-12T11:07:07.584Z,6.74
2019-02-12T11:08:07.580Z,6.74
2019-02-12T11:09:09.118Z,6.70
2019-02-12T11:10:07.555Z,6.68
2019-02-12T11:11:07.562Z,6.71
2019-02-12T11:12:09.064Z,6.68
2019-02-12T11:13:07.552Z,6.75
2019-02-12T11:14:07.531Z,6.67
2019-02-12T11:15:07.495Z,6.88
2019-02-12T11:16:07.492Z,6.81
2019-02-12T11:17:07.477Z,6.97
2019-02-12T11:18:07.496Z,6.86
2019-02-12T11:19:07.480Z,6.89
2019-02-12T11:20:07.467Z,6.88
2019-02-12T11:21:11.897Z,6.97
2019-02-12T11:22:07.420Z,6.96
2019-02-12T11:23:07.406Z,7.00
2019-02-12T11:24:07.424Z,7.13
2019-02-12T11:25:07.393Z,7.06
2019-02-12T11:26:07.373Z,7.10
2019-02-12T11:27:07.388Z,7.07
2019-02-12T11:28:07.354Z,7.13
2019-02-12T11:29:07.565Z,7.04
2019-02-12T11:30:07.333Z,7.11
2019-02-12T11:31:07.317Z,7.16
2019-02-12T11:32:07.331Z,7.18
2019-02-12T11:33:07.385Z,7.10
2019-02-12T11:34:07.309Z,7.07
2019-02-12T11:35:07.312Z,7.06
2019-02-12T11:36:07.268Z,6.99
2019-02-12T11:37:07.294Z,7.00
2019-02-12T11:38:07.240Z,6.96
2019-02-12T11:39:07.251Z,6.93
2019-02-12T11:40:07.218Z,7.01
2019-02-12T11:41:07.212Z,6.93
2019-02-12T11:42:07.196Z,6.97
2019-02-12T11:43:07.193Z,6.99
2019-02-12T11:44:07.209Z,6.96
2019-02-12T11:45:07.193Z,6.93
2019-02-12T11:46:07.160Z,7.06
2019-02-12T11:47:07.142Z,7.10
2019-02-12T11:48:07.130Z,7.08
2019-02-12T11:49:07.156Z,7.06
2019-02-12T11:50:07.108Z,7.08
2019-02-12T11:51:07.100Z,7.13
2019-02-12T11:52:07.088Z,7.26
2019-02-12T11:53:07.080Z,7.15
2019-02-12T11:54:07.062Z,7.25
2019-02-12T11:55:08.579Z,7.31
2019-02-12T11:56:07.050Z,7.19
2019-02-12T11:57:07.055Z,7.25
2019-02-12T11:58:07.016Z,7.29
2019-02-12T11:59:07.006Z,7.22
2019-02-12T12:00:07.033Z,7.33
2019-02-12T12:01:06.983Z,7.40
2019-02-12T12:02:06.972Z,7.33
2019-02-12T12:03:06.964Z,7.28
2019-02-12T12:04:06.962Z,7.33
2019-02-12T12:05:06.962Z,7.22
2019-02-12T12:06:06.932Z,7.26
2019-02-12T12:07:06.919Z,7.36
2019-02-12T12:08:06.918Z,7.31
2019-02-12T12:09:06.902Z,7.28
2019-02-12T12:10:06.936Z,7.29
2019-02-12T12:11:06.924Z,7.29
2019-02-12T12:12:06.883Z,7.36
2019-02-12T12:13:06.862Z,7.21
2019-02-12T12:14:06.842Z,7.19
2019-02-12T12:15:08.577Z,7.16
2019-02-12T12:16:06.818Z,7.28
2019-02-12T12:17:06.806Z,7.15
2019-02-12T12:18:06.820Z,7.11
2019-02-12T12:19:06.847Z,7.07
2019-02-12T12:20:08.577Z,7.11
2019-02-12T12:21:06.764Z,7.11
2019-02-12T12:22:06.757Z,7.19
2019-02-12T12:23:06.750Z,7.29
2019-02-12T12:24:06.731Z,7.34
2019-02-12T12:25:06.740Z,7.39
2019-02-12T12:26:06.712Z,7.46
2019-02-12T12:27:06.695Z,7.47
2019-02-12T12:28:06.684Z,7.46
2019-02-12T12:29:06.680Z,7.57
2019-02-12T12:30:08.660Z,7.60
2019-02-12T12:31:06.650Z,7.61
2019-02-12T12:32:06.657Z,7.55
2019-02-12T12:33:06.630Z,7.62
2019-02-12T12:34:06.625Z,7.60
2019-02-12T12:35:06.636Z,7.60
2019-02-12T12:36:06.618Z,7.64
2019-02-12T12:37:06.585Z,7.55
2019-02-12T12:38:06.571Z,7.64
2019-02-12T12:39:06.564Z,7.54
2019-02-12T12:40:06.549Z,7.64
2019-02-12T12:41:06.563Z,7.60
2019-02-12T12:42:06.529Z,7.66
2019-02-12T12:43:06.521Z,7.61
2019-02-12T12:44:06.512Z,7.62
2019-02-12T12:45:06.509Z,7.60
2019-02-12T12:46:06.509Z,7.74
2019-02-12T12:47:06.472Z,7.62
2019-02-12T12:48:06.462Z,7.60
2019-02-12T12:49:06.450Z,7.77
2019-02-12T12:50:06.448Z,7.83
2019-02-12T12:51:06.470Z,7.91
2019-02-12T12:52:06.425Z,7.91
2019-02-12T12:53:06.420Z,7.88
2019-02-12T12:54:06.394Z,7.83
2019-02-12T12:55:06.386Z,7.86
2019-02-12T12:56:06.403Z,7.87
2019-02-12T12:57:06.363Z,7.94
2019-02-12T12:58:06.370Z,7.95
2019-02-12T12:59:06.339Z,8.10
2019-02-12T13:00:06.339Z,8.09
2019-02-12T13:01:06.362Z,8.10
2019-02-12T13:02:06.310Z,8.10
2019-02-12T13:03:06.312Z,8.04
2019-02-12T13:04:06.282Z,7.98
2019-02-12T13:05:06.313Z,8.06
2019-02-12T13:06:06.299Z,8.05
2019-02-12T13:07:06.273Z,8.12
2019-02-12T13:08:06.242Z,8.16
2019-02-12T13:09:06.227Z,8.12
2019-02-12T13:10:06.217Z,8.26
2019-02-12T13:11:06.232Z,8.24
2019-02-12T13:12:06.199Z,8.14
2019-02-12T13:13:06.185Z,8.19
2019-02-12T13:14:06.172Z,8.13
2019-02-12T13:15:06.160Z,8.17
2019-02-12T13:16:06.197Z,8.23
2019-02-12T13:17:06.153Z,8.21
2019-02-12T13:18:06.134Z,8.16